Walker, Iowa
Current Conditions -  °F | °C
As of 8:55 PM on Friday 19 Dec 2014 (Local Time) from KVTI Reporting Station
Broken Clouds Broken Clouds  
Wind Chill: -5°   Ceiling: 2400
Heat Index: -1°   Visibility: 10mi
Dew Point: -5°   Wind: 7mph
Humidity: 74%   Direction: 160°SSE
Pressure: 30.23"   Gusts: NA
Location:  42.29°N, 91.78°W
Report Text: KVTI 200255Z AUTO 16006KT 10SM BKN024 M01/M05 A3023 RMK AO2 T10101051
Loading
Personal Weather Stations






























Interactive Weather Map New forecast layout! Learn more

10-Day Weather Forecast

Advertisements
Track Severe Weather on mobile